createdAt,value
2023-01-09T00:01:35.530Z,98544.56
2023-01-09T00:04:03.076Z,98542.91
2023-01-09T00:06:30.095Z,98529.50
2023-01-09T00:08:57.348Z,98533.53
2023-01-09T00:11:24.299Z,98527.81
2023-01-09T00:13:51.356Z,98526.53
2023-01-09T00:16:18.500Z,98535.88
2023-01-09T00:18:45.809Z,98531.72
2023-01-09T00:21:14.357Z,98538.56
2023-01-09T00:23:41.332Z,98538.28
2023-01-09T00:26:12.896Z,98539.19
2023-01-09T00:28:40.472Z,98523.31
2023-01-09T00:31:08.991Z,98515.84
2023-01-09T00:33:57.822Z,98527.72
2023-01-09T00:36:25.204Z,98519.31
2023-01-09T00:38:52.323Z,98528.69
2023-01-09T00:41:36.617Z,98530.59
2023-01-09T00:44:22.204Z,98519.94
2023-01-09T00:46:55.378Z,98523.25
2023-01-09T00:49:23.008Z,98525.84
2023-01-09T00:51:50.263Z,98524.44
2023-01-09T00:54:19.755Z,98517.25
2023-01-09T00:56:46.867Z,98506.69
2023-01-09T00:59:13.771Z,98502.50
2023-01-09T01:01:41.203Z,98503.13
2023-01-09T01:04:26.523Z,98516.63
2023-01-09T01:07:11.798Z,98521.53
2023-01-09T01:09:38.968Z,98529.06
2023-01-09T01:12:07.154Z,98530.31
2023-01-09T01:14:38.612Z,98530.66
2023-01-09T01:17:07.110Z,98524.25
2023-01-09T01:19:35.366Z,98532.81
2023-01-09T01:22:02.902Z,98532.47
2023-01-09T01:24:32.087Z,98515.53
2023-01-09T01:26:59.044Z,98530.59
2023-01-09T01:29:26.185Z,98518.25
2023-01-09T01:31:54.510Z,98523.50
2023-01-09T01:34:23.459Z,98525.31
2023-01-09T01:36:50.439Z,98525.91
2023-01-09T01:39:17.575Z,98537.09
2023-01-09T01:41:44.667Z,98540.31
2023-01-09T01:45:01.689Z,98552.16
2023-01-09T01:48:04.770Z,98548.66
2023-01-09T01:50:47.009Z,98551.16
2023-01-09T01:53:38.828Z,98554.56
2023-01-09T01:56:25.758Z,98549.44
2023-01-09T01:59:05.790Z,98541.59
2023-01-09T02:01:33.879Z,98543.75
2023-01-09T02:04:02.667Z,98541.22
2023-01-09T02:06:30.980Z,98547.59
2023-01-09T02:08:58.188Z,98538.28
2023-01-09T02:11:25.387Z,98524.06
2023-01-09T02:13:52.793Z,98541.22
2023-01-09T02:16:19.703Z,98542.75
2023-01-09T02:19:09.846Z,98549.63
2023-01-09T02:22:04.628Z,98556.88
2023-01-09T02:25:01.399Z,98561.72
2023-01-09T02:28:10.987Z,98558.75
2023-01-09T02:30:53.119Z,98563.75
2023-01-09T02:33:57.051Z,98571.00
2023-01-09T02:36:39.616Z,98568.94
2023-01-09T02:39:32.979Z,98574.91
2023-01-09T02:42:25.261Z,98588.69
2023-01-09T02:44:52.294Z,98586.19
2023-01-09T02:47:20.002Z,98590.84
2023-01-09T02:49:55.637Z,98599.69
2023-01-09T02:52:34.328Z,98613.44
2023-01-09T02:55:33.392Z,98617.56
2023-01-09T02:58:37.624Z,98624.59
2023-01-09T03:01:22.589Z,98639.22
2023-01-09T03:04:12.689Z,98634.00
2023-01-09T03:06:56.287Z,98638.91
2023-01-09T03:09:27.659Z,98639.72
2023-01-09T03:12:04.722Z,98643.16
2023-01-09T03:14:33.805Z,98636.72
2023-01-09T03:17:06.811Z,98618.66
2023-01-09T03:19:35.331Z,98633.47
2023-01-09T03:22:03.146Z,98615.00
2023-01-09T03:24:30.212Z,98619.91
2023-01-09T03:26:58.121Z,98622.19
2023-01-09T03:29:25.191Z,98621.06
2023-01-09T03:31:52.170Z,98625.94
2023-01-09T03:34:19.016Z,98621.72
2023-01-09T03:36:45.946Z,98626.00
2023-01-09T03:39:12.874Z,98638.94
2023-01-09T03:41:39.761Z,98643.16
2023-01-09T03:44:06.645Z,98658.91
2023-01-09T03:46:33.670Z,98677.22
2023-01-09T03:49:00.564Z,98694.72
2023-01-09T03:51:27.665Z,98697.66
2023-01-09T03:53:54.594Z,98693.41
2023-01-09T03:56:21.590Z,98705.75
2023-01-09T03:58:50.198Z,98715.47
2023-01-09T04:01:17.236Z,98729.50
2023-01-09T04:03:44.338Z,98736.81
2023-01-09T04:06:12.275Z,98748.69
2023-01-09T04:08:39.213Z,98749.75
2023-01-09T04:11:06.360Z,98755.94
2023-01-09T04:13:33.272Z,98771.31
2023-01-09T04:16:00.542Z,98767.44
2023-01-09T04:18:27.683Z,98770.16
2023-01-09T04:20:55.462Z,98774.06
2023-01-09T04:23:22.643Z,98783.97
2023-01-09T04:25:49.578Z,98782.66
2023-01-09T04:28:16.436Z,98790.28
2023-01-09T04:30:43.745Z,98790.94
2023-01-09T04:33:10.677Z,98798.06
2023-01-09T04:35:37.701Z,98814.59
2023-01-09T04:38:04.623Z,98815.69
2023-01-09T04:40:31.570Z,98828.03
2023-01-09T04:42:58.565Z,98831.06
2023-01-09T04:45:25.505Z,98837.25
2023-01-09T04:47:52.373Z,98849.22
2023-01-09T04:50:19.375Z,98849.69
2023-01-09T04:52:46.290Z,98855.38
2023-01-09T04:55:13.234Z,98856.16
2023-01-09T04:57:40.123Z,98864.44
2023-01-09T05:00:12.316Z,98866.38
2023-01-09T05:02:41.195Z,98872.03
2023-01-09T05:05:11.742Z,98879.31
2023-01-09T05:07:39.236Z,98882.72
2023-01-09T05:10:08.523Z,98873.66
2023-01-09T05:12:36.405Z,98878.50
2023-01-09T05:15:05.317Z,98878.66
2023-01-09T05:17:32.277Z,98891.63
2023-01-09T05:20:00.847Z,98897.56
2023-01-09T05:22:28.777Z,98898.75
2023-01-09T05:24:55.671Z,98897.56
2023-01-09T05:27:23.775Z,98904.84
2023-01-09T05:29:50.725Z,98901.94
2023-01-09T05:32:17.677Z,98903.88
2023-01-09T05:34:44.625Z,98903.88
2023-01-09T05:37:11.548Z,98910.97
2023-01-09T05:39:38.555Z,98920.38
2023-01-09T05:42:05.493Z,98917.81
2023-01-09T05:44:32.419Z,98920.88
2023-01-09T05:47:00.933Z,98922.31
2023-01-09T05:49:28.897Z,98917.63
2023-01-09T05:51:55.885Z,98917.78
2023-01-09T05:54:24.095Z,98923.75
2023-01-09T05:56:50.994Z,98920.69
2023-01-09T05:59:18.171Z,98924.91
2023-01-09T06:01:45.240Z,98918.75
2023-01-09T06:04:12.206Z,98930.56
2023-01-09T06:06:40.885Z,98929.41
2023-01-09T06:09:08.108Z,98930.06
2023-01-09T06:11:35.790Z,98938.13
2023-01-09T06:14:03.594Z,98933.94
2023-01-09T06:16:30.761Z,98936.84
2023-01-09T06:18:57.754Z,98934.91
2023-01-09T06:21:25.074Z,98945.56
2023-01-09T06:23:51.986Z,98946.34
2023-01-09T06:26:18.877Z,98942.94
2023-01-09T06:28:45.790Z,98949.22
2023-01-09T06:31:13.427Z,98962.84
2023-01-09T06:33:40.764Z,98959.13
2023-01-09T06:36:08.429Z,98968.03
2023-01-09T06:38:36.367Z,98974.81
2023-01-09T06:41:03.338Z,98966.28
2023-01-09T06:43:30.363Z,98974.94
2023-01-09T06:45:57.630Z,98986.44
2023-01-09T06:48:25.163Z,98981.13
2023-01-09T06:50:57.582Z,98991.47
2023-01-09T06:53:24.987Z,98987.94
2023-01-09T06:55:52.021Z,98991.84
2023-01-09T06:58:18.942Z,98993.72
2023-01-09T07:00:49.380Z,98987.28
2023-01-09T07:03:21.421Z,98983.88
2023-01-09T07:05:49.582Z,98990.53
2023-01-09T07:08:16.779Z,98987.16
2023-01-09T07:10:44.701Z,98983.72
2023-01-09T07:13:11.962Z,98981.34
2023-01-09T07:15:39.032Z,98986.66
2023-01-09T07:18:06.041Z,98984.53
2023-01-09T07:20:34.062Z,98987.00
2023-01-09T07:23:01.212Z,98983.28
2023-01-09T07:25:29.282Z,98986.63
2023-01-09T07:28:00.709Z,98991.53
2023-01-09T07:30:29.748Z,98991.84
2023-01-09T07:32:57.184Z,98993.63
2023-01-09T07:35:25.293Z,98998.94
2023-01-09T07:37:53.469Z,98991.53
2023-01-09T07:40:20.507Z,98998.63
2023-01-09T07:42:47.486Z,98998.78
2023-01-09T07:45:14.566Z,98998.47
2023-01-09T07:47:42.033Z,98992.66
2023-01-09T07:50:09.995Z,98997.03
2023-01-09T07:52:36.950Z,98991.19
2023-01-09T07:55:05.463Z,98991.53
2023-01-09T07:57:32.460Z,99001.72
2023-01-09T08:00:01.047Z,99016.09
2023-01-09T08:02:28.171Z,99013.88
2023-01-09T08:04:55.246Z,99012.41
2023-01-09T08:07:22.168Z,99011.16
2023-01-09T08:09:49.173Z,99015.22
2023-01-09T08:12:16.270Z,99005.47
2023-01-09T08:14:43.193Z,99005.84
2023-01-09T08:17:11.695Z,99003.41
2023-01-09T08:19:40.150Z,99004.19
2023-01-09T08:22:07.132Z,99007.78
2023-01-09T08:24:34.344Z,99014.88
2023-01-09T08:27:01.318Z,99011.34
2023-01-09T08:29:30.392Z,99017.13
2023-01-09T08:31:57.474Z,99014.94
2023-01-09T08:34:24.383Z,99013.31
2023-01-09T08:36:53.234Z,99016.19
2023-01-09T08:39:20.277Z,99021.72
2023-01-09T08:42:05.645Z,99014.97
2023-01-09T08:44:51.099Z,99008.94
2023-01-09T08:47:22.395Z,99005.19
2023-01-09T08:49:49.458Z,99018.47
2023-01-09T08:52:16.507Z,99014.59
2023-01-09T08:54:43.448Z,99001.75
2023-01-09T08:57:10.352Z,99016.53
2023-01-09T08:59:37.402Z,99014.09
2023-01-09T09:02:04.300Z,99026.56
2023-01-09T09:04:31.211Z,99029.16
2023-01-09T09:06:58.251Z,99034.19
2023-01-09T09:09:25.813Z,99029.16
2023-01-09T09:11:52.831Z,99042.72
2023-01-09T09:14:38.162Z,99043.38
2023-01-09T09:17:05.146Z,99039.97
2023-01-09T09:19:32.182Z,99042.91
2023-01-09T09:21:59.196Z,99045.47
2023-01-09T09:24:26.187Z,99050.50
2023-01-09T09:26:53.213Z,99052.75
2023-01-09T09:29:20.209Z,99041.13
2023-01-09T09:31:48.168Z,99035.94
2023-01-09T09:34:15.191Z,99040.13
2023-01-09T09:36:42.127Z,99040.34
2023-01-09T09:39:09.315Z,99041.13
2023-01-09T09:42:20.940Z,99022.53
2023-01-09T09:45:37.280Z,99022.38
2023-01-09T09:48:38.199Z,99022.69
2023-01-09T09:51:48.358Z,99023.66
2023-01-09T09:54:23.048Z,99039.06
2023-01-09T09:56:59.982Z,99029.22
2023-01-09T09:59:37.102Z,99028.22
2023-01-09T10:02:10.089Z,99037.75
2023-01-09T10:04:49.193Z,99040.75
2023-01-09T10:07:29.927Z,99036.41
2023-01-09T10:10:05.046Z,99036.06
2023-01-09T10:12:44.233Z,99035.91
2023-01-09T10:15:40.571Z,99033.16
2023-01-09T10:18:38.797Z,99033.50
2023-01-09T10:21:26.534Z,99044.47
2023-01-09T10:24:25.841Z,99043.38
2023-01-09T10:26:57.129Z,99047.72
2023-01-09T10:29:48.326Z,99056.00
2023-01-09T10:32:52.145Z,99063.13
2023-01-09T10:36:01.342Z,99070.09
2023-01-09T10:38:40.644Z,99062.00
2023-01-09T10:41:16.718Z,99068.16
2023-01-09T10:44:05.859Z,99074.28
2023-01-09T10:46:47.292Z,99087.56
2023-01-09T10:49:17.726Z,99073.00
2023-01-09T10:51:51.730Z,99073.50
2023-01-09T10:54:23.559Z,99061.66
2023-01-09T10:57:13.633Z,99067.81
2023-01-09T10:59:43.659Z,99052.94
2023-01-09T11:02:32.383Z,99049.03
2023-01-09T11:04:59.296Z,99040.63
2023-01-09T11:07:32.127Z,99040.09
2023-01-09T11:10:12.108Z,99049.16
2023-01-09T11:12:40.251Z,99046.44
2023-01-09T11:15:16.581Z,99049.50
2023-01-09T11:17:44.520Z,99048.22
2023-01-09T11:20:23.427Z,99058.75
2023-01-09T11:22:57.269Z,99055.19
2023-01-09T11:25:28.223Z,99065.53
2023-01-09T11:28:05.038Z,99057.78
2023-01-09T11:30:37.020Z,99058.41
2023-01-09T11:33:18.422Z,99067.25
2023-01-09T11:36:12.099Z,99056.06
2023-01-09T11:38:55.701Z,99059.31
2023-01-09T11:41:27.519Z,99064.13
2023-01-09T11:43:58.624Z,99069.09
2023-01-09T11:46:37.558Z,99062.06
2023-01-09T11:49:14.635Z,99060.97
2023-01-09T11:51:43.254Z,99054.00
2023-01-09T11:54:30.809Z,99055.47
2023-01-09T11:56:57.743Z,99050.94
2023-01-09T11:59:31.556Z,99047.91
2023-01-09T12:02:12.809Z,99045.75
2023-01-09T12:05:09.126Z,99046.88
2023-01-09T12:08:18.125Z,99040.94
2023-01-09T12:10:58.814Z,99038.34
2023-01-09T12:13:25.593Z,99022.47
2023-01-09T12:16:26.591Z,99005.78
2023-01-09T12:19:25.203Z,99012.91
2023-01-09T12:22:13.382Z,98983.69
2023-01-09T12:24:53.248Z,98993.63
2023-01-09T12:27:49.463Z,99000.44
2023-01-09T12:31:00.160Z,99004.00
2023-01-09T12:33:54.070Z,99000.78
2023-01-09T12:37:11.569Z,99009.50
2023-01-09T12:40:09.048Z,99024.19
2023-01-09T12:42:46.846Z,99031.53
2023-01-09T12:45:47.610Z,99028.94
2023-01-09T12:49:02.449Z,99039.81
2023-01-09T12:52:09.873Z,99037.19
2023-01-09T12:54:46.012Z,99041.22
2023-01-09T12:57:23.205Z,99047.84
2023-01-09T13:00:00.804Z,99051.03
2023-01-09T13:03:12.542Z,99034.69
2023-01-09T13:05:45.279Z,99015.38
2023-01-09T13:08:23.520Z,99036.84
2023-01-09T13:11:14.836Z,99035.53
2023-01-09T13:14:06.388Z,99053.53
2023-01-09T13:17:00.097Z,99048.97
2023-01-09T13:19:42.284Z,99060.34
2023-01-09T13:22:14.526Z,99047.56
2023-01-09T13:25:27.186Z,99059.06
2023-01-09T13:28:12.591Z,99069.63
2023-01-09T13:31:36.269Z,99056.50
2023-01-09T13:34:14.213Z,99056.97
2023-01-09T13:36:51.448Z,99063.47
2023-01-09T13:39:26.403Z,99059.72
2023-01-09T13:42:22.846Z,99068.00
2023-01-09T13:44:55.982Z,99075.59
2023-01-09T13:47:28.353Z,99071.06
2023-01-09T13:50:09.180Z,99064.44
2023-01-09T13:52:41.885Z,99073.19
2023-01-09T13:55:11.729Z,99088.88
2023-01-09T13:57:43.584Z,99098.63
2023-01-09T14:00:14.449Z,99100.56
2023-01-09T14:02:41.672Z,99108.34
2023-01-09T14:05:14.480Z,99097.47
2023-01-09T14:07:52.778Z,99114.00
2023-01-09T14:10:30.411Z,99117.06
2023-01-09T14:12:58.324Z,99114.97
2023-01-09T14:15:39.620Z,99119.50
2023-01-09T14:18:17.156Z,99123.69
2023-01-09T14:23:52.766Z,99139.19
2023-01-09T14:26:41.059Z,99155.13
2023-01-09T14:29:36.133Z,99156.13
2023-01-09T14:32:24.968Z,99160.03
2023-01-09T14:35:14.216Z,99167.06
2023-01-09T14:37:44.022Z,99174.88
2023-01-09T14:40:23.375Z,99191.25
2023-01-09T14:42:54.529Z,99192.81
2023-01-09T14:45:27.371Z,99195.56
2023-01-09T14:48:11.321Z,99214.78
2023-01-09T14:50:55.413Z,99214.56
2023-01-09T14:53:36.913Z,99225.97
2023-01-09T14:56:06.717Z,99223.06
2023-01-09T14:58:37.644Z,99236.66
2023-01-09T15:01:10.782Z,99250.41
2023-01-09T15:03:50.008Z,99251.06
2023-01-09T15:06:23.632Z,99241.78
2023-01-09T15:09:01.775Z,99240.94
2023-01-09T15:11:30.228Z,99244.63
2023-01-09T15:14:00.186Z,99259.34
2023-01-09T15:16:28.410Z,99252.09
2023-01-09T15:19:09.073Z,99273.41
2023-01-09T15:21:36.109Z,99267.88
2023-01-09T15:24:21.584Z,99281.03
2023-01-09T15:27:15.276Z,99279.53
2023-01-09T15:29:42.274Z,99283.09
2023-01-09T15:32:28.352Z,99275.41
2023-01-09T15:34:57.082Z,99279.53
2023-01-09T15:37:33.777Z,99283.09
2023-01-09T15:40:04.372Z,99286.66
2023-01-09T15:42:57.332Z,99281.47
2023-01-09T15:45:27.023Z,99278.53
2023-01-09T15:47:55.660Z,99290.94
2023-01-09T15:50:29.337Z,99287.38
2023-01-09T15:52:57.093Z,99291.66
2023-01-09T15:55:35.245Z,99292.03
2023-01-09T15:58:47.339Z,99302.94
2023-01-09T16:01:35.994Z,99312.25
2023-01-09T16:04:15.778Z,99305.25
2023-01-09T16:06:51.411Z,99314.91
2023-01-09T16:09:26.321Z,99325.78
2023-01-09T16:12:00.482Z,99326.91
2023-01-09T16:14:38.650Z,99331.56
2023-01-09T16:17:18.004Z,99338.25
2023-01-09T16:19:58.127Z,99338.06
2023-01-09T16:22:30.288Z,99337.97
2023-01-09T16:25:04.086Z,99351.94
2023-01-09T16:27:34.590Z,99358.97
2023-01-09T16:30:05.732Z,99358.69
2023-01-09T16:32:55.364Z,99370.28
2023-01-09T16:35:26.231Z,99364.50
2023-01-09T16:37:53.186Z,99370.38
2023-01-09T16:40:26.771Z,99372.78
2023-01-09T16:43:07.189Z,99381.59
2023-01-09T16:45:41.970Z,99393.78
2023-01-09T16:48:17.405Z,99396.69
2023-01-09T16:50:44.768Z,99410.06
2023-01-09T16:53:22.647Z,99414.34
2023-01-09T16:55:51.031Z,99426.09
2023-01-09T16:58:34.318Z,99430.59
2023-01-09T17:01:01.454Z,99443.53
2023-01-09T17:03:28.547Z,99439.75
2023-01-09T17:06:01.047Z,99436.59
2023-01-09T17:08:32.778Z,99431.34
2023-01-09T17:10:59.940Z,99451.97
2023-01-09T17:13:27.757Z,99456.06
2023-01-09T17:15:57.137Z,99455.88
2023-01-09T17:18:26.500Z,99451.00
2023-01-09T17:20:59.320Z,99462.19
2023-01-09T17:23:26.735Z,99465.19
2023-01-09T17:26:18.870Z,99473.91
2023-01-09T17:28:52.302Z,99479.88
2023-01-09T17:31:19.599Z,99473.47
2023-01-09T17:33:46.858Z,99472.28
2023-01-09T17:36:26.694Z,99480.28
2023-01-09T17:38:55.264Z,99495.94
2023-01-09T17:41:23.835Z,99493.06
2023-01-09T17:43:51.612Z,99493.84
2023-01-09T17:46:30.538Z,99494.16
2023-01-09T17:48:58.331Z,99496.97
2023-01-09T17:51:26.113Z,99495.41
2023-01-09T17:53:53.347Z,99501.09
2023-01-09T17:56:28.474Z,99512.22
2023-01-09T17:58:55.616Z,99515.28
2023-01-09T18:01:22.927Z,99519.47
2023-01-09T18:03:50.717Z,99520.81
2023-01-09T18:06:21.511Z,99539.50
2023-01-09T18:08:48.456Z,99534.81
2023-01-09T18:11:19.538Z,99546.13
2023-01-09T18:13:49.747Z,99552.81
2023-01-09T18:16:20.600Z,99550.03
2023-01-09T18:18:48.331Z,99560.66
2023-01-09T18:21:18.889Z,99564.50
2023-01-09T18:23:47.641Z,99574.31
2023-01-09T18:26:20.861Z,99558.72
2023-01-09T18:28:59.970Z,99566.94
2023-01-09T18:31:30.595Z,99575.66
2023-01-09T18:34:02.064Z,99579.50
2023-01-09T18:36:30.020Z,99582.59
2023-01-09T18:39:00.171Z,99585.06
2023-01-09T18:41:27.979Z,99593.31
2023-01-09T18:43:58.509Z,99593.09
2023-01-09T18:46:30.606Z,99605.50
2023-01-09T18:49:01.475Z,99612.97
2023-01-09T18:51:29.865Z,99614.59
2023-01-09T18:53:57.095Z,99607.50
2023-01-09T18:56:24.786Z,99601.94
2023-01-09T18:58:57.118Z,99613.78
2023-01-09T19:01:28.581Z,99636.78
2023-01-09T19:03:57.340Z,99641.81
2023-01-09T19:06:24.551Z,99647.50
2023-01-09T19:08:51.527Z,99644.69
2023-01-09T19:11:18.454Z,99650.81
2023-01-09T19:13:45.445Z,99655.97
2023-01-09T19:16:12.608Z,99656.41
2023-01-09T19:18:41.834Z,99664.84
2023-01-09T19:21:22.148Z,99677.88
2023-01-09T19:23:49.749Z,99673.13
2023-01-09T19:26:23.830Z,99675.06
2023-01-09T19:28:55.028Z,99675.88
2023-01-09T19:31:24.550Z,99675.59
2023-01-09T19:33:52.786Z,99670.56
2023-01-09T19:36:21.149Z,99679.16
2023-01-09T19:38:48.495Z,99672.59
2023-01-09T19:41:19.470Z,99669.06
2023-01-09T19:43:47.521Z,99676.69
2023-01-09T19:46:18.601Z,99685.81
2023-01-09T19:48:46.494Z,99680.47
2023-01-09T19:51:15.586Z,99688.09
2023-01-09T19:53:42.706Z,99694.09
2023-01-09T19:56:19.373Z,99696.81
2023-01-09T19:58:55.684Z,99702.81
2023-01-09T20:01:26.807Z,99711.81
2023-01-09T20:03:56.468Z,99715.34
2023-01-09T20:06:25.168Z,99715.59
2023-01-09T20:08:57.534Z,99710.16
2023-01-09T20:11:27.165Z,99716.16
2023-01-09T20:13:55.639Z,99722.53
2023-01-09T20:16:30.149Z,99730.31
2023-01-09T20:19:00.150Z,99728.97
2023-01-09T20:21:28.962Z,99719.97
2023-01-09T20:23:59.759Z,99730.16
2023-01-09T20:26:28.255Z,99733.28
2023-01-09T20:28:55.564Z,99724.97
2023-01-09T20:31:27.922Z,99732.19
2023-01-09T20:33:55.734Z,99736.00
2023-01-09T20:36:27.487Z,99741.16
2023-01-09T20:38:55.421Z,99741.31
2023-01-09T20:41:23.247Z,99747.81
2023-01-09T20:43:59.160Z,99749.44
2023-01-09T20:46:33.220Z,99757.06
2023-01-09T20:49:06.493Z,99762.91
2023-01-09T20:51:35.447Z,99766.44
2023-01-09T20:54:03.614Z,99770.66
2023-01-09T20:56:32.289Z,99782.16
2023-01-09T20:59:00.654Z,99777.91
2023-01-09T21:01:28.412Z,99776.94
2023-01-09T21:03:58.067Z,99776.94
2023-01-09T21:06:26.319Z,99789.97
2023-01-09T21:08:53.343Z,99793.16
2023-01-09T21:11:22.513Z,99798.59
2023-01-09T21:13:50.461Z,99800.22
2023-01-09T21:16:21.407Z,99808.94
2023-01-09T21:18:49.368Z,99809.81
2023-01-09T21:21:23.565Z,99813.88
2023-01-09T21:23:54.095Z,99809.50
2023-01-09T21:26:26.036Z,99816.84
2023-01-09T21:28:55.199Z,99817.81
2023-01-09T21:31:34.576Z,99821.75
2023-01-09T21:34:07.485Z,99821.63
2023-01-09T21:36:35.405Z,99823.53
2023-01-09T21:39:07.472Z,99820.25
2023-01-09T21:41:55.294Z,99821.03
2023-01-09T21:44:40.594Z,99812.66
2023-01-09T21:47:07.591Z,99821.22
2023-01-09T21:49:36.086Z,99826.28
2023-01-09T21:52:04.538Z,99837.34
2023-01-09T21:54:31.782Z,99850.09
2023-01-09T21:56:59.227Z,99849.16
2023-01-09T21:59:27.681Z,99866.00
2023-01-09T22:01:54.832Z,99859.63
2023-01-09T22:04:25.722Z,99861.56
2023-01-09T22:06:52.736Z,99876.09
2023-01-09T22:09:19.772Z,99881.28
2023-01-09T22:11:47.390Z,99889.84
2023-01-09T22:14:17.236Z,99883.22
2023-01-09T22:16:45.677Z,99888.75
2023-01-09T22:19:14.381Z,99901.09
2023-01-09T22:21:41.356Z,99912.94
2023-01-09T22:24:15.302Z,99917.06
2023-01-09T22:26:42.384Z,99917.91
2023-01-09T22:29:09.383Z,99927.69
2023-01-09T22:31:39.774Z,99934.16
2023-01-09T22:34:06.910Z,99938.84
2023-01-09T22:36:33.994Z,99944.25
2023-01-09T22:39:01.408Z,99946.28
2023-01-09T22:41:30.505Z,99951.78
2023-01-09T22:43:58.347Z,99957.91
2023-01-09T22:46:25.775Z,99968.63
2023-01-09T22:48:52.686Z,99965.88
2023-01-09T22:51:21.343Z,99977.03
2023-01-09T22:53:49.317Z,99976.38
2023-01-09T22:56:22.096Z,99982.13
2023-01-09T22:58:58.409Z,99984.78
2023-01-09T23:01:25.508Z,99988.59
2023-01-09T23:03:52.587Z,99990.50
2023-01-09T23:06:22.283Z,99996.53
2023-01-09T23:08:51.071Z,100001.31
2023-01-09T23:11:46.044Z,100010.19
2023-01-09T23:14:13.404Z,100013.38
2023-01-09T23:16:40.544Z,100018.28
2023-01-09T23:19:14.353Z,100015.97
2023-01-09T23:21:42.300Z,100013.78
2023-01-09T23:24:09.684Z,100019.88
2023-01-09T23:26:38.683Z,100015.28
2023-01-09T23:29:07.328Z,100026.81
2023-01-09T23:31:34.657Z,100036.13
2023-01-09T23:34:02.306Z,100034.09
2023-01-09T23:36:29.246Z,100033.97
2023-01-09T23:38:56.767Z,100038.22
2023-01-09T23:41:43.635Z,100042.88
2023-01-09T23:44:10.548Z,100049.47
2023-01-09T23:46:37.425Z,100054.16
2023-01-09T23:49:04.304Z,100060.41
2023-01-09T23:51:31.264Z,100060.44
2023-01-09T23:53:58.194Z,100057.81
2023-01-09T23:56:25.140Z,100057.69
2023-01-09T23:58:52.016Z,100065.59
